Time;durP1;ratioP1;P1;durP2;ratioP2;P2;SDS_P1;SDS_P2;PMS_P1;PMS_P2;Temp;Humidity;BMP_temperature;BMP_pressure;BME280_temperature;BME280_humidity;BME280_pressure;Samples;Min_cycle;Max_cycle;Signal;HPM_P1;HPM_P2
2022/07/06 00:01:12;;;;;;;0.90;0.90;;;15.40;87.10;;;;;;5018414;28;20537;-51
2022/07/06 00:03:38;;;;;;;1.20;1.10;;;15.30;85.20;;;;;;5019935;28;20538;-54
2022/07/06 00:06:06;;;;;;;3.70;0.70;;;15.20;82.30;;;;;;5021415;28;20516;-53
2022/07/06 00:08:33;;;;;;;2.63;0.87;;;15.20;80.00;;;;;;5015495;28;20506;-53
2022/07/06 00:11:00;;;;;;;2.43;0.90;;;15.20;70.10;;;;;;5023464;28;20830;-53
2022/07/06 00:13:27;;;;;;;1.33;0.77;;;15.20;75.40;;;;;;5020261;28;20463;-52
2022/07/06 00:15:53;;;;;;;1.97;0.80;;;15.10;72.10;;;;;;5022219;28;20466;-52
2022/07/06 00:18:20;;;;;;;6.40;0.97;;;15.10;69.50;;;;;;5021773;28;20858;-52
2022/07/06 00:20:47;;;;;;;1.70;1.00;;;14.90;66.30;;;;;;5014216;28;20491;-54
2022/07/06 00:23:15;;;;;;;3.17;0.70;;;14.90;64.80;;;;;;5015138;28;21004;-52
2022/07/06 00:25:41;;;;;;;2.43;1.00;;;15.00;65.00;;;;;;5020887;28;20875;-53
2022/07/06 00:28:08;;;;;;;2.93;1.03;;;14.90;52.60;;;;;;5020511;28;20482;-53
2022/07/06 00:30:34;;;;;;;9.27;1.33;;;14.90;59.20;;;;;;5017072;28;20489;-53
2022/07/06 00:33:01;;;;;;;4.00;1.37;;;14.90;58.70;;;;;;5021455;28;20455;-53
2022/07/06 00:35:28;;;;;;;0.80;0.80;;;14.90;58.70;;;;;;5018538;28;20556;-52
2022/07/06 00:37:55;;;;;;;10.03;2.20;;;14.90;56.80;;;;;;5019434;28;20537;-53
2022/07/06 00:40:23;;;;;;;1.47;1.17;;;14.90;53.10;;;;;;5018411;28;20467;-52
2022/07/06 00:42:50;;;;;;;2.10;0.93;;;14.80;50.60;;;;;;5013613;28;20980;-52
2022/07/06 00:45:17;;;;;;;3.80;1.00;;;14.80;48.60;;;;;;5015232;28;20822;-54
2022/07/06 00:47:45;;;;;;;1.97;0.90;;;14.70;47.50;;;;;;5022672;28;20490;-53
2022/07/06 00:50:20;;;;;;;2.00;0.97;;;14.70;41.60;;;;;;5017400;28;21237;-53
2022/07/06 00:52:48;;;;;;;1.10;1.00;;;14.80;38.90;;;;;;5016645;28;20460;-54
2022/07/06 00:55:16;;;;;;;1.57;1.10;;;14.80;37.40;;;;;;5016585;28;21100;-51
2022/07/06 00:57:45;;;;;;;2.10;1.27;;;14.80;34.90;;;;;;5017705;28;20518;-53
2022/07/06 01:00:13;;;;;;;4.50;0.90;;;14.80;34.60;;;;;;5018885;28;20900;-53
2022/07/06 01:02:40;;;;;;;4.67;0.97;;;14.80;31.30;;;;;;5020190;28;20462;-52
2022/07/06 01:05:09;;;;;;;1.10;0.93;;;14.80;32.60;;;;;;5017017;28;20552;-53
2022/07/06 01:07:37;;;;;;;5.10;1.00;;;14.90;31.20;;;;;;5017838;28;20513;-53
2022/07/06 01:10:04;;;;;;;4.00;1.10;;;15.00;29.10;;;;;;5028542;28;20457;-53
2022/07/06 01:12:31;;;;;;;5.77;1.10;;;15.00;24.30;;;;;;5025708;28;20465;-53
2022/07/06 01:14:59;;;;;;;2.00;0.77;;;15.00;31.00;;;;;;5029731;28;20952;-52
2022/07/06 01:17:26;;;;;;;2.03;0.87;;;15.10;36.00;;;;;;5034981;28;20479;-52
2022/07/06 01:19:53;;;;;;;1.17;0.80;;;15.20;37.00;;;;;;5030384;28;20462;-51
2022/07/06 01:22:21;;;;;;;1.27;0.90;;;15.20;35.40;;;;;;5030260;28;20466;-53
2022/07/06 01:24:48;;;;;;;1.53;0.87;;;15.20;34.50;;;;;;5025612;28;20486;-53
2022/07/06 01:27:15;;;;;;;5.23;1.20;;;15.20;40.80;;;;;;5023604;28;20902;-51
2022/07/06 01:29:41;;;;;;;1.10;0.80;;;15.20;38.40;;;;;;5029008;28;20517;-53
2022/07/06 01:32:08;;;;;;;1.83;1.07;;;15.20;41.60;;;;;;5024532;28;20464;-52
2022/07/06 01:34:35;;;;;;;3.07;1.20;;;15.20;39.30;;;;;;5023991;28;20960;-53
2022/07/06 01:37:02;;;;;;;3.40;1.30;;;15.30;41.70;;;;;;5024320;28;20528;-52
2022/07/06 01:39:30;;;;;;;1.70;1.00;;;15.40;44.80;;;;;;5030396;28;20458;-52
2022/07/06 01:41:56;;;;;;;4.67;1.20;;;15.40;44.80;;;;;;5022791;28;20522;-52
2022/07/06 01:44:23;;;;;;;3.60;1.03;;;15.40;44.90;;;;;;5027129;28;20486;-52
2022/07/06 01:46:49;;;;;;;2.30;1.30;;;15.50;45.90;;;;;;5023073;28;20537;-52
2022/07/06 01:49:16;;;;;;;1.43;1.00;;;15.50;49.10;;;;;;5023946;28;20823;-53
2022/07/06 01:51:42;;;;;;;2.60;0.90;;;15.50;51.00;;;;;;5023715;28;20454;-53
2022/07/06 01:54:09;;;;;;;1.33;1.10;;;15.60;53.40;;;;;;5028591;28;20451;-52
2022/07/06 01:56:37;;;;;;;5.03;1.10;;;15.60;55.50;;;;;;5023762;28;20493;-54
2022/07/06 01:59:04;;;;;;;3.33;0.87;;;15.60;60.60;;;;;;5027511;28;20455;-52
2022/07/06 02:01:30;;;;;;;3.43;1.30;;;15.70;63.60;;;;;;5025044;28;20478;-53
2022/07/06 02:03:57;;;;;;;1.73;1.00;;;15.70;64.40;;;;;;5023154;28;20479;-53
2022/07/06 02:06:23;;;;;;;7.47;1.00;;;15.70;62.90;;;;;;5024565;28;20463;-54
2022/07/06 02:08:51;;;;;;;1.40;0.80;;;15.80;63.40;;;;;;5025985;28;20478;-53
2022/07/06 02:11:18;;;;;;;2.83;1.20;;;15.80;67.80;;;;;;5023424;28;20470;-52
2022/07/06 02:13:46;;;;;;;1.77;1.20;;;15.80;69.10;;;;;;5020904;28;20861;-53
2022/07/06 02:16:13;;;;;;;1.57;1.30;;;15.80;67.40;;;;;;5024202;28;20468;-52
2022/07/06 02:18:40;;;;;;;2.60;1.30;;;15.80;67.80;;;;;;5024152;28;20601;-54
2022/07/06 02:21:07;;;;;;;2.70;1.37;;;15.90;68.70;;;;;;5025059;28;20456;-53
2022/07/06 02:23:33;;;;;;;4.67;1.03;;;15.90;67.90;;;;;;5021335;28;20571;-53
2022/07/06 02:26:00;;;;;;;2.50;1.53;;;15.90;69.40;;;;;;5023739;28;20521;-52
2022/07/06 02:28:27;;;;;;;4.73;1.27;;;15.90;70.90;;;;;;5022851;28;20486;-54
2022/07/06 02:30:54;;;;;;;1.67;1.37;;;15.90;69.00;;;;;;5024795;28;20516;-53
2022/07/06 02:33:21;;;;;;;1.43;0.90;;;15.90;72.00;;;;;;5024946;28;20493;-53
2022/07/06 02:35:48;;;;;;;1.90;0.90;;;15.90;70.60;;;;;;5026543;28;20863;-53
2022/07/06 02:38:14;;;;;;;2.87;1.40;;;15.90;69.30;;;;;;5023359;28;20487;-53
2022/07/06 02:40:41;;;;;;;1.70;0.97;;;15.90;68.20;;;;;;5025017;28;20900;-51
2022/07/06 02:43:07;;;;;;;2.30;0.90;;;15.90;65.70;;;;;;5022372;28;20471;-52
2022/07/06 02:45:34;;;;;;;2.60;0.90;;;15.90;66.80;;;;;;5021909;28;20595;-52
2022/07/06 02:48:02;;;;;;;2.33;1.20;;;15.90;65.80;;;;;;5022852;28;20524;-52
2022/07/06 02:50:29;;;;;;;4.00;1.37;;;15.90;64.20;;;;;;5028042;28;20525;-53
2022/07/06 02:52:55;;;;;;;9.73;1.23;;;15.90;59.40;;;;;;5019588;28;20462;-53
2022/07/06 02:55:22;;;;;;;4.30;1.00;;;15.90;58.30;;;;;;5030953;28;20540;-52
2022/07/06 02:57:49;;;;;;;3.47;1.40;;;15.90;54.50;;;;;;5029844;28;20855;-53
2022/07/06 03:00:16;;;;;;;3.70;1.60;;;15.90;56.80;;;;;;5020811;28;20532;-51
2022/07/06 03:02:43;;;;;;;1.90;1.20;;;15.80;55.30;;;;;;5020833;28;20892;-51
2022/07/06 03:05:11;;;;;;;4.87;1.93;;;15.80;57.20;;;;;;5021567;28;20479;-53
2022/07/06 03:07:38;;;;;;;1.83;1.30;;;15.80;55.80;;;;;;5027321;28;20475;-54
2022/07/06 03:10:05;;;;;;;2.20;1.30;;;15.80;51.90;;;;;;5022296;28;20464;-53
2022/07/06 03:12:32;;;;;;;3.80;1.03;;;15.80;51.60;;;;;;5021232;28;20504;-52
2022/07/06 03:14:58;;;;;;;4.20;0.90;;;15.70;53.60;;;;;;5025418;28;20980;-53
2022/07/06 03:17:25;;;;;;;6.67;1.53;;;15.70;55.20;;;;;;5026344;28;20873;-54
2022/07/06 03:19:52;;;;;;;1.40;1.03;;;15.70;53.80;;;;;;5019792;28;20468;-52
2022/07/06 03:22:20;;;;;;;3.37;1.40;;;15.70;51.00;;;;;;5022731;28;20516;-52
2022/07/06 03:24:46;;;;;;;1.83;1.20;;;15.70;50.00;;;;;;5022031;28;20491;-52
2022/07/06 03:27:13;;;;;;;3.50;2.17;;;15.70;47.50;;;;;;5023296;28;20537;-53
2022/07/06 03:29:40;;;;;;;2.30;1.20;;;15.60;45.70;;;;;;5024873;28;20975;-53
2022/07/06 03:32:07;;;;;;;1.37;0.90;;;15.60;45.30;;;;;;5018454;28;20459;-51
2022/07/06 03:34:33;;;;;;;2.60;1.20;;;15.60;41.90;;;;;;5019971;28;20467;-51
2022/07/06 03:37:00;;;;;;;4.47;1.30;;;15.60;41.00;;;;;;5022386;28;20529;-53
2022/07/06 03:39:28;;;;;;;3.10;1.03;;;15.60;45.80;;;;;;5022711;28;20463;-53
2022/07/06 03:41:54;;;;;;;3.33;1.00;;;15.50;42.40;;;;;;5023674;28;20453;-54
2022/07/06 03:44:21;;;;;;;1.13;1.03;;;15.60;43.10;;;;;;5020578;28;20603;-53
2022/07/06 03:46:48;;;;;;;1.90;1.20;;;15.60;48.50;;;;;;5018188;28;20459;-52
2022/07/06 03:49:14;;;;;;;2.37;1.43;;;15.50;48.20;;;;;;5019060;28;20498;-52
2022/07/06 03:51:41;;;;;;;5.10;1.80;;;15.50;48.40;;;;;;5022717;28;20460;-53
2022/07/06 03:54:07;;;;;;;0.97;0.87;;;15.50;52.60;;;;;;5022116;28;20450;-52
2022/07/06 03:56:38;;;;;;;1.77;1.10;;;15.50;49.60;;;;;;5020863;28;20467;-53
2022/07/06 03:59:04;;;;;;;6.83;1.13;;;15.50;48.30;;;;;;5021300;28;20467;-53
2022/07/06 04:01:31;;;;;;;1.10;1.00;;;15.40;46.60;;;;;;5020211;28;20536;-53
2022/07/06 04:03:58;;;;;;;2.87;1.30;;;15.40;45.90;;;;;;5016954;28;21043;-53
2022/07/06 04:06:26;;;;;;;6.73;1.47;;;15.40;43.10;;;;;;5030742;28;20463;-52
2022/07/06 04:08:52;;;;;;;3.67;1.77;;;15.30;42.90;;;;;;5029768;28;20986;-53
2022/07/06 04:11:19;;;;;;;11.13;1.30;;;15.30;39.20;;;;;;5018037;28;20810;-53
2022/07/06 04:13:47;;;;;;;4.33;1.50;;;15.20;37.00;;;;;;5019408;28;20467;-53
2022/07/06 04:16:13;;;;;;;4.23;1.20;;;15.20;37.60;;;;;;5015701;28;20463;-53
2022/07/06 04:18:40;;;;;;;4.47;1.70;;;15.20;36.10;;;;;;5019019;28;21042;-53
2022/07/06 04:21:07;;;;;;;9.83;1.40;;;15.10;35.90;;;;;;5019298;28;20514;-54
2022/07/06 04:23:33;;;;;;;3.27;1.40;;;15.20;36.00;;;;;;5021799;28;20526;-54
2022/07/06 04:26:00;;;;;;;2.10;1.30;;;15.20;35.50;;;;;;5019632;28;20628;-54
2022/07/06 04:28:27;;;;;;;2.60;1.13;;;15.30;36.30;;;;;;5017075;28;20892;-53
2022/07/06 04:30:55;;;;;;;8.30;1.00;;;15.20;37.00;;;;;;5016023;28;21035;-53
2022/07/06 04:33:21;;;;;;;3.07;1.10;;;15.20;32.60;;;;;;5018432;28;20459;-54
2022/07/06 04:35:48;;;;;;;5.80;1.67;;;15.30;35.00;;;;;;5019671;28;20469;-52
2022/07/06 04:38:15;;;;;;;2.70;1.57;;;15.30;38.10;;;;;;5020811;28;20552;-52
2022/07/06 04:40:42;;;;;;;4.20;1.70;;;15.30;40.70;;;;;;5030615;28;20512;-52
2022/07/06 04:43:08;;;;;;;4.57;1.70;;;15.30;38.90;;;;;;5022736;28;21029;-53
2022/07/06 04:45:35;;;;;;;9.33;1.50;;;15.40;39.30;;;;;;5014943;28;20474;-54
2022/07/06 04:48:03;;;;;;;1.97;1.10;;;15.40;37.00;;;;;;5018040;28;20535;-53
2022/07/06 04:50:30;;;;;;;2.50;1.30;;;15.40;33.80;;;;;;5016060;28;20516;-53
2022/07/06 04:52:56;;;;;;;8.23;2.13;;;15.40;35.50;;;;;;5024118;28;20454;-53
2022/07/06 04:55:23;;;;;;;4.17;1.60;;;15.40;37.10;;;;;;5024489;28;20885;-52
2022/07/06 04:57:51;;;;;;;4.47;1.73;;;15.50;33.90;;;;;;5023310;28;20897;-52
2022/07/06 05:00:18;;;;;;;4.37;1.73;;;15.40;32.70;;;;;;5019149;28;20455;-52
2022/07/06 05:02:45;;;;;;;8.73;1.57;;;15.50;34.50;;;;;;5020153;28;20462;-51
2022/07/06 05:05:13;;;;;;;4.67;1.73;;;15.40;33.60;;;;;;5023475;28;20475;-53
2022/07/06 05:07:40;;;;;;;4.17;1.10;;;15.40;35.60;;;;;;5023442;28;20479;-53
2022/07/06 05:10:08;;;;;;;3.23;1.10;;;15.40;34.80;;;;;;5024005;28;20868;-53
2022/07/06 05:12:35;;;;;;;8.33;1.60;;;15.40;31.80;;;;;;5024496;28;21007;-53
2022/07/06 05:15:02;;;;;;;8.07;1.70;;;15.50;36.70;;;;;;5031377;28;20458;-51
2022/07/06 05:17:28;;;;;;;7.10;1.67;;;15.50;40.70;;;;;;5022423;28;20553;-53
2022/07/06 05:19:55;;;;;;;5.43;1.50;;;15.50;40.30;;;;;;5024008;28;20459;-52
2022/07/06 05:22:24;;;;;;;3.37;1.20;;;15.50;40.90;;;;;;5024521;28;21015;-52
2022/07/06 05:24:50;;;;;;;3.37;1.60;;;15.60;40.80;;;;;;5029394;28;20524;-54
2022/07/06 05:27:17;;;;;;;6.33;1.93;;;15.60;39.80;;;;;;5027712;28;20532;-53
2022/07/06 05:29:44;;;;;;;9.73;1.50;;;15.60;40.60;;;;;;5019340;28;20474;-51
2022/07/06 05:32:10;;;;;;;13.13;1.50;;;15.70;40.90;;;;;;5017307;28;20512;-52
2022/07/06 05:34:38;;;;;;;6.63;1.43;;;15.80;44.30;;;;;;5014803;28;20505;-52
2022/07/06 05:37:04;;;;;;;5.70;1.40;;;15.80;46.50;;;;;;5019451;28;20509;-52
2022/07/06 05:39:32;;;;;;;7.63;1.60;;;15.80;46.00;;;;;;5023200;28;20475;-52
2022/07/06 05:41:59;;;;;;;3.73;2.23;;;15.80;47.90;;;;;;5022401;28;20508;-52
2022/07/06 05:44:25;;;;;;;10.30;1.70;;;15.90;52.40;;;;;;5017250;28;20470;-53
2022/07/06 05:50:11;;;;;;;6.30;1.60;;;15.90;50.10;;;;;;5025872;28;20898;-53
2022/07/06 05:52:23;;;;;;;3.87;1.40;;;16.10;50.60;;;;;;5025356;28;20478;-52
2022/07/06 05:54:50;;;;;;;5.70;1.80;;;16.00;51.10;;;;;;5025914;28;20458;-52
2022/07/06 05:57:17;;;;;;;5.13;1.47;;;16.10;51.30;;;;;;5039358;28;20561;-53
2022/07/06 05:59:44;;;;;;;7.37;1.80;;;16.10;53.10;;;;;;5023436;28;20546;-52
2022/07/06 06:02:11;;;;;;;4.53;1.50;;;16.10;53.20;;;;;;5021638;28;20474;-52
2022/07/06 06:04:38;;;;;;;4.13;1.50;;;16.20;50.70;;;;;;5022042;28;20455;-52
2022/07/06 06:07:04;;;;;;;12.60;1.73;;;16.30;50.80;;;;;;5015617;28;21016;-52
2022/07/06 06:09:31;;;;;;;1.90;1.43;;;16.30;48.80;;;;;;5027567;28;20547;-52
2022/07/06 06:11:59;;;;;;;2.83;1.27;;;16.40;48.70;;;;;;5030799;28;20831;-53
2022/07/06 06:14:26;;;;;;;6.10;1.20;;;16.40;52.00;;;;;;5033170;28;20814;-52
2022/07/06 06:16:52;;;;;;;6.40;1.30;;;16.40;50.70;;;;;;5021026;28;20479;-52
2022/07/06 06:19:19;;;;;;;4.83;1.47;;;16.40;51.30;;;;;;5028500;28;20516;-53
2022/07/06 06:21:45;;;;;;;4.20;1.33;;;16.40;50.60;;;;;;5021922;28;20525;-53
2022/07/06 06:24:12;;;;;;;2.73;1.37;;;16.40;51.30;;;;;;5020101;28;20472;-53
2022/07/06 06:26:39;;;;;;;4.87;1.50;;;16.40;49.70;;;;;;5027241;28;20557;-53
2022/07/06 06:29:07;;;;;;;4.40;1.57;;;16.40;55.40;;;;;;5021587;28;21043;-53
2022/07/06 06:31:33;;;;;;;2.83;1.17;;;16.40;60.50;;;;;;5016435;28;20867;-53
2022/07/06 06:34:00;;;;;;;10.00;1.50;;;16.50;63.40;;;;;;5024226;28;20462;-52
2022/07/06 06:36:26;;;;;;;8.83;1.47;;;16.70;61.20;;;;;;5018650;28;20463;-53
2022/07/06 06:38:53;;;;;;;2.93;1.80;;;16.80;64.00;;;;;;5021725;28;21000;-51
2022/07/06 06:41:20;;;;;;;4.80;1.77;;;16.90;78.40;;;;;;5022331;28;20456;-52
2022/07/06 06:43:47;;;;;;;3.37;1.83;;;17.00;83.10;;;;;;5019816;28;20508;-53
2022/07/06 06:46:15;;;;;;;3.50;1.03;;;17.00;99.90;;;;;;5023755;28;20478;-53
2022/07/06 06:48:41;;;;;;;4.20;1.53;;;17.00;99.90;;;;;;5028477;28;20483;-52
2022/07/06 06:51:08;;;;;;;5.80;1.27;;;17.00;99.90;;;;;;5026249;28;20462;-51
2022/07/06 06:53:34;;;;;;;3.07;1.07;;;17.00;99.90;;;;;;5025296;28;20474;-52
2022/07/06 06:56:01;;;;;;;4.03;1.10;;;17.00;99.90;;;;;;5034503;28;20971;-52
2022/07/06 06:58:28;;;;;;;1.40;0.97;;;17.10;99.90;;;;;;5028253;28;20482;-52
2022/07/06 07:00:54;;;;;;;4.83;1.23;;;17.10;99.90;;;;;;5013821;28;20464;-52
2022/07/06 07:03:22;;;;;;;6.00;1.10;;;17.10;99.90;;;;;;5017570;28;20487;-53
2022/07/06 07:05:49;;;;;;;2.90;1.20;;;17.10;99.90;;;;;;5014985;28;20515;-52
2022/07/06 07:08:16;;;;;;;2.27;1.00;;;17.00;99.90;;;;;;5012297;23;20587;-54
2022/07/06 07:10:43;;;;;;;3.03;1.00;;;17.00;99.90;;;;;;4987955;28;20534;-52
2022/07/06 07:13:09;;;;;;;2.83;0.87;;;17.10;99.90;;;;;;4983597;28;20457;-53
2022/07/06 07:15:36;;;;;;;5.93;1.03;;;17.30;99.90;;;;;;4982170;28;20586;-53
2022/07/06 07:18:03;;;;;;;2.00;1.10;;;17.40;99.90;;;;;;4981922;28;20566;-54
2022/07/06 07:20:33;;;;;;;2.60;1.20;;;17.30;99.90;;;;;;4983537;28;21149;-54
2022/07/06 07:22:59;;;;;;;3.77;1.47;;;17.30;99.90;;;;;;4982788;28;20456;-54
2022/07/06 07:25:26;;;;;;;2.77;0.80;;;17.40;99.90;;;;;;4981062;28;20547;-53
2022/07/06 07:27:53;;;;;;;4.03;1.27;;;17.30;99.90;;;;;;4983487;28;20486;-54
2022/07/06 07:30:19;;;;;;;1.53;1.43;;;17.30;99.90;;;;;;4988264;28;20461;-53
2022/07/06 07:32:46;;;;;;;1.30;1.10;;;17.40;99.90;;;;;;4980073;28;20457;-53
2022/07/06 07:35:13;;;;;;;2.50;1.23;;;17.50;99.90;;;;;;4982894;28;20460;-54
2022/07/06 07:37:41;;;;;;;4.07;0.97;;;17.60;99.90;;;;;;4986651;28;20477;-54
2022/07/06 07:40:08;;;;;;;6.80;1.70;;;17.60;99.90;;;;;;4998607;28;20471;-54
2022/07/06 07:42:35;;;;;;;2.40;1.57;;;17.60;99.90;;;;;;4986849;28;20468;-53
2022/07/06 07:45:01;;;;;;;3.60;0.70;;;17.50;99.90;;;;;;4981117;28;20478;-54
2022/07/06 07:47:28;;;;;;;4.77;1.60;;;17.50;99.90;;;;;;4983094;28;20588;-53
2022/07/06 07:49:55;;;;;;;2.87;1.27;;;17.40;99.90;;;;;;4975517;28;20469;-53
2022/07/06 07:52:21;;;;;;;3.33;1.27;;;17.30;99.90;;;;;;4974564;28;20464;-53
2022/07/06 07:54:49;;;;;;;5.17;1.60;;;17.30;99.90;;;;;;4972855;28;20954;-53
2022/07/06 07:57:16;;;;;;;8.03;1.40;;;17.40;99.90;;;;;;4984987;28;20454;-52
2022/07/06 07:59:42;;;;;;;6.43;1.13;;;17.50;99.90;;;;;;4983730;28;20545;-53
2022/07/06 08:02:09;;;;;;;4.20;1.17;;;17.70;99.90;;;;;;4973788;28;20457;-52
2022/07/06 08:04:35;;;;;;;2.40;1.10;;;17.80;99.90;;;;;;4987602;28;20487;-53
2022/07/06 08:07:02;;;;;;;5.27;1.03;;;18.00;99.90;;;;;;4981697;28;20520;-53
2022/07/06 08:09:29;;;;;;;1.30;1.10;;;18.20;99.90;;;;;;4971615;28;20547;-53
2022/07/06 08:11:58;;;;;;;3.00;1.20;;;18.40;99.90;;;;;;4974980;28;20878;-53
2022/07/06 08:14:25;;;;;;;7.00;1.43;;;18.40;99.90;;;;;;4974025;28;20512;-54
2022/07/06 08:16:52;;;;;;;3.33;1.17;;;18.50;99.90;;;;;;4971203;28;20973;-53
2022/07/06 08:19:18;;;;;;;3.87;1.20;;;18.50;99.90;;;;;;4971736;28;20531;-53
2022/07/06 08:21:45;;;;;;;1.60;0.90;;;18.50;99.90;;;;;;4974339;28;20468;-53
2022/07/06 08:24:12;;;;;;;1.20;0.90;;;18.50;99.90;;;;;;4970905;28;20888;-53
2022/07/06 08:26:39;;;;;;;3.10;0.80;;;18.50;99.90;;;;;;4975683;28;20484;-53
2022/07/06 08:29:07;;;;;;;2.30;0.97;;;18.50;99.90;;;;;;4986045;28;20481;-54
2022/07/06 08:31:34;;;;;;;2.43;0.93;;;18.40;99.90;;;;;;4987079;28;20974;-53
2022/07/06 08:34:01;;;;;;;5.47;0.90;;;18.30;99.90;;;;;;4986591;28;20894;-53
2022/07/06 08:36:27;;;;;;;0.97;0.87;;;18.40;99.90;;;;;;4979147;28;20464;-53
2022/07/06 08:38:54;;;;;;;2.60;1.27;;;18.30;99.90;;;;;;4987905;28;20485;-55
2022/07/06 08:41:24;;;;;;;3.70;1.70;;;18.40;99.90;;;;;;4980047;28;20468;-53
2022/07/06 08:43:51;;;;;;;3.00;0.90;;;18.60;99.90;;;;;;4986423;28;20460;-53
2022/07/06 08:46:20;;;;;;;1.60;1.00;;;18.70;99.90;;;;;;4978359;28;20518;-53
2022/07/06 08:48:48;;;;;;;6.47;1.33;;;18.70;99.90;;;;;;4975607;28;20531;-53
2022/07/06 08:51:15;;;;;;;5.13;1.10;;;18.80;99.90;;;;;;4979777;28;20469;-54
2022/07/06 08:53:43;;;;;;;4.50;1.60;;;18.80;99.90;;;;;;4974202;28;20461;-53
2022/07/06 08:56:10;;;;;;;1.93;0.90;;;18.80;99.90;;;;;;4975899;28;20501;-53
2022/07/06 08:58:40;;;;;;;1.27;0.70;;;18.80;99.90;;;;;;4983662;28;20540;-53
2022/07/06 09:01:09;;;;;;;3.07;1.47;;;18.80;99.90;;;;;;4976402;28;20461;-53
2022/07/06 09:03:37;;;;;;;1.93;0.80;;;18.90;99.90;;;;;;4977634;28;20519;-53
2022/07/06 09:06:07;;;;;;;2.00;1.07;;;18.80;99.90;;;;;;4977014;28;20484;-53
2022/07/06 09:08:36;;;;;;;2.83;0.97;;;18.70;1.40;;;;;;4983923;28;21047;-53
2022/07/06 09:11:03;;;;;;;3.13;1.20;;;18.60;99.90;;;;;;4972456;28;20469;-52
2022/07/06 09:13:29;;;;;;;1.97;0.90;;;18.50;99.90;;;;;;4977317;28;20584;-54
2022/07/06 09:15:56;;;;;;;4.93;0.80;;;18.50;99.90;;;;;;4981735;28;20957;-52
2022/07/06 09:18:23;;;;;;;3.07;0.93;;;18.30;99.90;;;;;;4984191;28;20596;-54
2022/07/06 09:20:51;;;;;;;5.00;0.93;;;18.30;99.90;;;;;;4980308;28;20954;-53
2022/07/06 09:23:18;;;;;;;2.50;1.00;;;18.30;99.90;;;;;;4981248;28;20469;-53
2022/07/06 09:25:49;;;;;;;1.57;0.70;;;18.30;99.90;;;;;;4984133;28;20824;-53
2022/07/06 09:28:16;;;;;;;1.37;0.60;;;18.30;99.90;;;;;;4971451;28;20518;-54
2022/07/06 09:30:43;;;;;;;3.30;1.03;;;18.40;99.90;;;;;;4977709;28;20469;-53
2022/07/06 09:33:12;;;;;;;2.07;0.93;;;18.30;99.90;;;;;;4982681;28;20820;-54
2022/07/06 09:35:39;;;;;;;2.10;0.73;;;18.30;99.90;;;;;;4983163;28;20460;-53
2022/07/06 09:38:09;;;;;;;3.60;0.97;;;18.30;99.90;;;;;;4973624;28;20539;-53
2022/07/06 09:40:38;;;;;;;2.97;0.73;;;18.10;99.90;;;;;;4973701;28;21108;-53
2022/07/06 09:43:12;;;;;;;5.70;0.87;;;18.10;99.90;;;;;;4990636;28;20502;-53
2022/07/06 09:45:40;;;;;;;3.23;0.93;;;17.90;99.90;;;;;;4972325;28;20473;-54
2022/07/06 09:48:09;;;;;;;4.87;1.10;;;17.90;99.90;;;;;;4975579;28;20485;-53
2022/07/06 09:50:40;;;;;;;1.10;1.00;;;17.80;99.90;;;;;;4976966;28;20481;-53
2022/07/06 09:53:08;;;;;;;3.67;0.90;;;17.70;99.90;;;;;;4973533;28;20476;-52
2022/07/06 09:55:35;;;;;;;0.90;0.80;;;17.70;99.90;;;;;;4978872;28;20503;-54
2022/07/06 09:58:01;;;;;;;10.30;1.10;;;17.60;99.90;;;;;;4976828;28;20480;-52
2022/07/06 10:00:29;;;;;;;10.13;0.80;;;17.60;99.90;;;;;;4983708;28;20503;-53
2022/07/06 10:02:56;;;;;;;5.60;0.97;;;17.60;99.90;;;;;;4977984;28;20520;-53
2022/07/06 10:05:26;;;;;;;3.90;1.00;;;17.70;99.90;;;;;;4985528;28;20469;-54
2022/07/06 10:07:57;;;;;;;7.63;1.30;;;17.80;99.90;;;;;;4986274;28;20517;-54
2022/07/06 10:10:27;;;;;;;7.20;1.07;;;17.90;99.90;;;;;;4983355;28;20832;-53
2022/07/06 10:12:56;;;;;;;1.80;0.83;;;18.00;99.90;;;;;;4981425;28;20463;-54
2022/07/06 10:15:24;;;;;;;5.93;1.00;;;18.20;99.90;;;;;;4982031;28;20468;-54
2022/07/06 10:17:52;;;;;;;3.93;1.10;;;18.30;99.90;;;;;;4987205;28;20484;-54
2022/07/06 10:20:19;;;;;;;1.70;0.80;;;18.60;99.90;;;;;;4974080;28;20959;-53
2022/07/06 10:22:47;;;;;;;3.47;0.83;;;18.80;99.90;;;;;;4980537;28;20472;-54
2022/07/06 10:25:16;;;;;;;1.27;0.70;;;18.90;99.90;;;;;;4973493;28;20516;-53
2022/07/06 10:27:45;;;;;;;4.20;1.10;;;19.00;99.90;;;;;;4983619;28;20552;-53
2022/07/06 10:30:13;;;;;;;0.83;0.50;;;19.00;99.90;;;;;;4976269;28;20470;-53
2022/07/06 10:32:41;;;;;;;1.33;0.50;;;18.90;99.90;;;;;;4981869;28;20479;-52
2022/07/06 10:35:09;;;;;;;3.17;1.20;;;18.90;99.90;;;;;;4982299;28;20457;-54
2022/07/06 10:37:36;;;;;;;0.80;0.60;;;18.80;99.90;;;;;;4979592;28;20990;-53
2022/07/06 10:42:56;;;;;;;1.03;0.57;;;19.00;99.90;;;;;;4980315;28;20452;-53
2022/07/06 10:45:55;;;;;;;2.40;0.53;;;19.00;99.90;;;;;;4978183;28;20460;-54
2022/07/06 10:48:22;;;;;;;0.90;0.50;;;19.00;99.90;;;;;;4977867;28;20480;-53
2022/07/06 10:50:51;;;;;;;5.50;0.80;;;19.00;99.90;;;;;;4980825;28;20965;-53
2022/07/06 10:53:21;;;;;;;0.97;0.63;;;18.90;99.90;;;;;;4980309;28;20456;-53
2022/07/06 10:55:51;;;;;;;3.23;0.73;;;18.80;99.90;;;;;;4979013;28;21002;-54
2022/07/06 10:58:39;;;;;;;2.50;1.30;;;18.70;99.90;;;;;;4976348;28;20535;-53
2022/07/06 11:01:06;;;;;;;2.30;1.07;;;18.50;99.90;;;;;;4979529;28;20504;-53
2022/07/06 11:03:39;;;;;;;1.37;0.63;;;18.50;99.90;;;;;;4978490;28;20469;-54
2022/07/06 11:06:12;;;;;;;3.50;0.73;;;18.30;99.90;;;;;;4978294;28;20454;-52
2022/07/06 11:08:53;;;;;;;11.37;1.23;;;18.10;99.90;;;;;;4979183;28;20491;-53
2022/07/06 11:11:22;;;;;;;0.83;0.57;;;17.90;99.90;;;;;;4978062;28;20456;-53
2022/07/06 11:13:52;;;;;;;0.50;0.50;;;17.80;99.90;;;;;;4977078;28;20524;-53
2022/07/06 11:16:20;;;;;;;2.37;0.93;;;17.80;99.90;;;;;;4978571;28;20462;-53
2022/07/06 11:18:49;;;;;;;3.90;1.10;;;17.80;99.90;;;;;;4980717;28;21444;-53
2022/07/06 11:21:17;;;;;;;1.90;0.80;;;17.70;99.90;;;;;;4979290;28;20466;-54
2022/07/06 11:23:47;;;;;;;2.43;0.90;;;17.70;99.90;;;;;;4980896;28;20464;-52
2022/07/06 11:26:23;;;;;;;1.63;0.60;;;17.70;99.90;;;;;;4978276;28;20460;-49
2022/07/06 11:28:52;;;;;;;2.63;0.83;;;17.70;99.90;;;;;;4975739;28;20939;-50
2022/07/06 11:31:19;;;;;;;4.30;1.10;;;17.80;99.90;;;;;;4978601;28;21374;-49
2022/07/06 11:33:47;;;;;;;2.00;0.90;;;18.00;99.90;;;;;;4976917;28;21006;-49
2022/07/06 11:36:16;;;;;;;0.90;0.80;;;18.20;99.90;;;;;;4973854;28;21061;-51
2022/07/06 11:38:43;;;;;;;4.10;1.00;;;18.40;99.90;;;;;;4976321;28;20481;-49
2022/07/06 11:41:12;;;;;;;5.00;1.27;;;18.60;99.90;;;;;;4972187;28;20468;-50
2022/07/06 11:43:42;;;;;;;2.40;0.87;;;18.50;99.90;;;;;;4970159;28;20453;-51
2022/07/06 11:46:21;;;;;;;3.27;0.70;;;18.60;99.90;;;;;;4977567;28;20548;-50
2022/07/06 11:48:48;;;;;;;3.70;0.93;;;18.70;99.90;;;;;;4979780;28;20465;-49
2022/07/06 11:51:15;;;;;;;3.37;1.00;;;18.80;99.90;;;;;;4980591;28;20982;-50
2022/07/06 11:53:45;;;;;;;1.57;0.67;;;18.80;99.90;;;;;;4971963;28;20457;-50
2022/07/06 11:56:12;;;;;;;6.80;2.33;;;19.00;99.90;;;;;;4982379;28;20951;-50
2022/07/06 11:58:40;;;;;;;2.50;1.13;;;19.10;99.90;;;;;;4968216;28;20486;-51
2022/07/06 12:01:07;;;;;;;2.53;0.90;;;19.30;99.90;;;;;;4967755;28;20457;-51
2022/07/06 12:03:36;;;;;;;1.90;1.00;;;19.40;99.90;;;;;;4976798;28;21050;-50
2022/07/06 12:06:03;;;;;;;4.90;0.90;;;19.50;99.90;;;;;;4971816;28;20512;-50
2022/07/06 12:08:29;;;;;;;3.73;1.00;;;19.70;99.90;;;;;;4980685;28;20557;-50
2022/07/06 12:10:56;;;;;;;1.73;0.90;;;19.70;1.40;;;;;;4981331;28;20472;-50
2022/07/06 12:13:23;;;;;;;2.73;1.17;;;19.80;99.90;;;;;;4977834;28;20469;-50
2022/07/06 12:15:50;;;;;;;1.27;0.80;;;19.60;99.90;;;;;;4975507;28;20884;-51
2022/07/06 12:18:16;;;;;;;1.80;0.70;;;19.70;99.90;;;;;;4971973;28;20489;-49
2022/07/06 12:20:44;;;;;;;1.70;0.97;;;19.80;99.90;;;;;;4973386;28;20461;-50
2022/07/06 12:23:11;;;;;;;1.47;0.60;;;19.80;99.90;;;;;;4977487;28;20471;-50
2022/07/06 12:25:38;;;;;;;3.40;0.70;;;19.80;99.90;;;;;;4974832;28;20460;-50
2022/07/06 12:28:05;;;;;;;4.30;0.70;;;19.80;99.90;;;;;;4974954;28;20734;-50
2022/07/06 12:30:31;;;;;;;1.47;0.40;;;19.80;99.90;;;;;;4973984;28;20473;-49
2022/07/06 12:33:18;;;;;;;4.30;0.80;;;19.70;99.90;;;;;;4976260;28;20469;-50
2022/07/06 12:35:46;;;;;;;1.33;0.50;;;19.80;99.90;;;;;;4978215;28;20701;-50
2022/07/06 12:38:13;;;;;;;0.70;0.53;;;19.90;99.90;;;;;;4973398;28;20480;-50
2022/07/06 12:40:39;;;;;;;2.60;0.70;;;20.10;99.90;;;;;;4970063;28;20457;-50
2022/07/06 12:43:06;;;;;;;6.80;1.00;;;20.10;99.90;;;;;;4981649;28;20532;-50
2022/07/06 12:45:33;;;;;;;5.53;0.60;;;20.00;99.90;;;;;;4978900;28;20538;-49
2022/07/06 12:48:01;;;;;;;7.63;0.80;;;19.90;99.90;;;;;;4970127;28;20492;-48
2022/07/06 12:50:35;;;;;;;5.57;0.60;;;20.00;99.90;;;;;;4963923;28;20470;-49
2022/07/06 12:53:04;;;;;;;8.53;0.97;;;20.20;99.90;;;;;;4973881;28;20511;-49